createdAt,value
2016-10-16T00:00:31.363Z,0
2016-10-16T00:01:12.007Z,0
2016-10-16T00:01:52.655Z,0
2016-10-16T00:02:33.298Z,0
2016-10-16T00:03:13.951Z,0
2016-10-16T00:03:54.584Z,0
2016-10-16T00:04:35.221Z,0
2016-10-16T00:05:15.870Z,0
2016-10-16T00:05:56.531Z,0
2016-10-16T00:06:37.188Z,0
2016-10-16T00:07:17.818Z,0
2016-10-16T00:07:58.492Z,0
2016-10-16T00:08:39.147Z,0
2016-10-16T00:09:19.790Z,0
2016-10-16T00:10:00.437Z,0
2016-10-16T00:10:41.091Z,0
2016-10-16T00:11:21.755Z,0
2016-10-16T00:12:02.408Z,0
2016-10-16T00:12:43.058Z,0
2016-10-16T00:13:23.710Z,0
2016-10-16T00:14:04.366Z,0
2016-10-16T00:14:45.010Z,0
2016-10-16T00:15:25.647Z,0
2016-10-16T00:16:06.287Z,0
2016-10-16T00:16:46.928Z,0
2016-10-16T00:17:27.559Z,0
2016-10-16T00:18:08.204Z,0
2016-10-16T00:18:48.857Z,0
2016-10-16T00:19:29.515Z,0
2016-10-16T00:20:10.158Z,0
2016-10-16T00:20:50.798Z,0
2016-10-16T00:21:31.425Z,0
2016-10-16T00:22:12.059Z,0
2016-10-16T00:22:52.684Z,0
2016-10-16T00:23:33.326Z,0
2016-10-16T00:24:13.955Z,0
2016-10-16T00:24:54.588Z,0
2016-10-16T00:25:35.230Z,0
2016-10-16T00:26:15.865Z,0
2016-10-16T00:26:56.506Z,0
2016-10-16T00:27:37.145Z,0
2016-10-16T00:28:17.803Z,0
2016-10-16T00:28:58.433Z,0
2016-10-16T00:29:39.060Z,0
2016-10-16T00:30:20.646Z,0
2016-10-16T00:31:00.347Z,0
2016-10-16T00:31:40.982Z,0
2016-10-16T00:32:21.632Z,0
2016-10-16T00:33:02.287Z,0
2016-10-16T00:33:42.906Z,0
2016-10-16T00:34:23.538Z,0
2016-10-16T00:35:04.200Z,0
2016-10-16T00:35:44.867Z,0
2016-10-16T00:36:25.500Z,0
2016-10-16T00:37:06.125Z,0
2016-10-16T00:37:46.745Z,0
2016-10-16T00:38:27.391Z,0
2016-10-16T00:39:08.022Z,0
2016-10-16T00:39:48.651Z,0
2016-10-16T00:40:29.289Z,0
2016-10-16T00:41:09.939Z,0
2016-10-16T00:41:50.587Z,0
2016-10-16T00:42:31.238Z,0
2016-10-16T00:43:11.858Z,0
2016-10-16T00:43:52.488Z,0
2016-10-16T00:44:33.123Z,0
2016-10-16T00:45:13.751Z,0
2016-10-16T00:45:54.400Z,0
2016-10-16T00:46:35.027Z,0
2016-10-16T00:47:15.669Z,0
2016-10-16T00:47:56.316Z,0
2016-10-16T00:48:36.959Z,0
2016-10-16T00:49:17.591Z,0
2016-10-16T00:49:58.250Z,0
2016-10-16T00:50:38.919Z,0
2016-10-16T00:51:19.567Z,0
2016-10-16T00:52:00.228Z,0
2016-10-16T00:52:40.866Z,0
2016-10-16T00:53:21.513Z,0
2016-10-16T00:54:02.223Z,0
2016-10-16T00:54:42.860Z,0
2016-10-16T00:55:23.483Z,0
2016-10-16T00:56:04.153Z,0
2016-10-16T00:56:44.802Z,0
2016-10-16T00:57:25.442Z,0
2016-10-16T00:58:06.077Z,0
2016-10-16T00:58:46.706Z,0
2016-10-16T00:59:27.338Z,0
2016-10-16T01:00:07.999Z,0
2016-10-16T01:00:48.625Z,0
2016-10-16T01:01:29.272Z,0
2016-10-16T01:02:09.916Z,0
2016-10-16T01:02:50.564Z,0
2016-10-16T01:03:31.196Z,0
2016-10-16T01:04:11.822Z,0
2016-10-16T01:04:52.460Z,0
2016-10-16T01:05:33.115Z,0
2016-10-16T01:06:13.755Z,0
2016-10-16T01:06:54.407Z,0
2016-10-16T01:07:35.054Z,0
2016-10-16T01:08:15.684Z,0
2016-10-16T01:08:56.323Z,0
2016-10-16T01:09:36.948Z,0
2016-10-16T01:10:17.584Z,0
2016-10-16T01:10:58.232Z,0
2016-10-16T01:11:38.850Z,0
2016-10-16T01:12:19.490Z,0
2016-10-16T01:13:00.128Z,0
2016-10-16T01:13:40.778Z,0
2016-10-16T01:14:21.392Z,0
2016-10-16T01:15:02.046Z,0
2016-10-16T01:15:42.679Z,0
2016-10-16T01:16:23.329Z,0
2016-10-16T01:17:04.006Z,0
2016-10-16T01:17:44.634Z,0
2016-10-16T01:18:25.278Z,0
2016-10-16T01:19:05.923Z,0
2016-10-16T01:19:46.551Z,0
2016-10-16T01:20:27.197Z,0
2016-10-16T01:21:07.840Z,0
2016-10-16T01:21:48.487Z,0
2016-10-16T01:22:29.118Z,0
2016-10-16T01:23:09.771Z,0
2016-10-16T01:23:50.409Z,0
2016-10-16T01:24:31.035Z,0
2016-10-16T01:25:11.687Z,0
2016-10-16T01:25:52.319Z,0
2016-10-16T01:26:32.975Z,0
2016-10-16T01:27:13.619Z,0
2016-10-16T01:27:54.255Z,0
2016-10-16T01:28:34.888Z,0
2016-10-16T01:29:15.516Z,0
2016-10-16T01:29:56.156Z,0
2016-10-16T01:30:36.797Z,0
2016-10-16T01:31:17.429Z,0
2016-10-16T01:31:58.071Z,0
2016-10-16T01:32:38.724Z,0
2016-10-16T01:33:19.365Z,0
2016-10-16T01:33:59.996Z,0
2016-10-16T01:34:40.637Z,0
2016-10-16T01:35:21.272Z,0
2016-10-16T01:36:01.933Z,0
2016-10-16T01:36:42.572Z,0
2016-10-16T01:37:23.239Z,0
2016-10-16T01:38:03.868Z,0
2016-10-16T01:38:44.538Z,0
2016-10-16T01:39:25.179Z,0
2016-10-16T01:40:05.825Z,0
2016-10-16T01:40:46.481Z,0
2016-10-16T01:41:27.131Z,0
2016-10-16T01:42:07.803Z,0
2016-10-16T01:42:48.466Z,0
2016-10-16T01:43:29.111Z,0
2016-10-16T01:44:09.760Z,0
2016-10-16T01:44:50.408Z,0
2016-10-16T01:45:31.064Z,0
2016-10-16T01:46:11.745Z,0
2016-10-16T01:46:52.381Z,0
2016-10-16T01:47:33.019Z,0
2016-10-16T01:48:13.650Z,0
2016-10-16T01:48:54.279Z,0
2016-10-16T01:49:34.914Z,0
2016-10-16T01:50:15.546Z,0
2016-10-16T01:50:56.195Z,0
2016-10-16T01:51:36.848Z,0
2016-10-16T01:52:17.502Z,0
2016-10-16T01:52:58.150Z,0
2016-10-16T01:53:38.784Z,0
2016-10-16T01:54:19.415Z,0
2016-10-16T01:55:00.045Z,0
2016-10-16T01:55:40.687Z,0
2016-10-16T01:56:21.331Z,0
2016-10-16T01:57:01.970Z,0
2016-10-16T01:57:42.623Z,0
2016-10-16T01:58:23.256Z,0
2016-10-16T01:59:03.889Z,0
2016-10-16T01:59:44.535Z,0
2016-10-16T02:00:25.190Z,0
2016-10-16T02:01:05.840Z,0
2016-10-16T02:01:46.493Z,0
2016-10-16T02:02:27.134Z,0
2016-10-16T02:03:07.800Z,0
2016-10-16T02:03:48.430Z,0
2016-10-16T02:04:29.061Z,0
2016-10-16T02:05:09.717Z,0
2016-10-16T02:05:50.342Z,0
2016-10-16T02:06:30.992Z,0
2016-10-16T02:07:11.641Z,0
2016-10-16T02:07:52.275Z,0
2016-10-16T02:08:32.910Z,0
2016-10-16T02:09:13.552Z,0
2016-10-16T02:09:54.198Z,0
2016-10-16T02:10:34.845Z,0
2016-10-16T02:11:15.505Z,0
2016-10-16T02:11:56.150Z,0
2016-10-16T02:12:36.786Z,0
2016-10-16T02:13:17.446Z,0
2016-10-16T02:13:58.066Z,0
2016-10-16T02:14:38.712Z,0
2016-10-16T02:15:19.359Z,0
2016-10-16T02:15:59.985Z,0
2016-10-16T02:16:40.615Z,0
2016-10-16T02:17:21.244Z,0
2016-10-16T02:18:01.899Z,0
2016-10-16T02:18:42.526Z,0
2016-10-16T02:19:23.166Z,0
2016-10-16T02:20:03.813Z,0
2016-10-16T02:20:44.441Z,0
2016-10-16T02:21:25.066Z,0
2016-10-16T02:22:05.696Z,0
2016-10-16T02:22:46.338Z,0
2016-10-16T02:23:26.987Z,0
2016-10-16T02:24:07.642Z,0
2016-10-16T02:24:48.291Z,0
2016-10-16T02:25:28.950Z,0
2016-10-16T02:26:09.657Z,0
2016-10-16T02:26:50.312Z,0
2016-10-16T02:27:30.959Z,0
2016-10-16T02:28:11.608Z,0
2016-10-16T02:28:52.255Z,0
2016-10-16T02:29:32.886Z,0
2016-10-16T02:30:13.517Z,0
2016-10-16T02:30:54.190Z,0
2016-10-16T02:31:34.831Z,0
2016-10-16T02:32:15.454Z,0
2016-10-16T02:32:56.103Z,0
2016-10-16T02:33:36.721Z,0
2016-10-16T02:34:17.361Z,0
2016-10-16T02:34:57.981Z,0
2016-10-16T02:35:38.620Z,0
2016-10-16T02:36:19.270Z,0
2016-10-16T02:36:59.924Z,0
2016-10-16T02:37:40.568Z,0
2016-10-16T02:38:21.203Z,0
2016-10-16T02:39:01.855Z,0
2016-10-16T02:39:42.509Z,0
2016-10-16T02:40:23.171Z,0
2016-10-16T02:41:03.804Z,0
2016-10-16T02:41:44.431Z,0
2016-10-16T02:42:25.063Z,0
2016-10-16T02:43:05.716Z,0
2016-10-16T02:43:46.333Z,0
2016-10-16T02:44:26.964Z,0
2016-10-16T02:45:07.595Z,0
2016-10-16T02:45:48.253Z,0
2016-10-16T02:46:28.895Z,0
2016-10-16T02:47:09.517Z,0
2016-10-16T02:47:50.166Z,0
2016-10-16T02:48:30.811Z,0
2016-10-16T02:49:11.441Z,0
2016-10-16T02:49:52.067Z,0
2016-10-16T02:50:32.720Z,0
2016-10-16T02:51:13.361Z,0
2016-10-16T02:51:53.996Z,0
2016-10-16T02:52:34.628Z,0
2016-10-16T02:53:15.277Z,0
2016-10-16T02:53:55.921Z,0
2016-10-16T02:54:36.545Z,0
2016-10-16T02:55:17.173Z,0
2016-10-16T02:55:57.839Z,0
2016-10-16T02:56:38.466Z,0
2016-10-16T02:57:19.142Z,0
2016-10-16T02:57:59.785Z,0
2016-10-16T02:58:40.426Z,0
2016-10-16T02:59:21.056Z,0
2016-10-16T03:00:01.705Z,0
2016-10-16T03:00:42.335Z,0
2016-10-16T03:01:22.988Z,0
2016-10-16T03:02:03.650Z,0
2016-10-16T03:02:44.296Z,0
2016-10-16T03:03:24.926Z,0
2016-10-16T03:04:05.572Z,0
2016-10-16T03:04:46.225Z,0
2016-10-16T03:05:26.870Z,0
2016-10-16T03:06:07.517Z,0
2016-10-16T03:06:48.172Z,0
2016-10-16T03:07:28.810Z,0
2016-10-16T03:08:09.460Z,0
2016-10-16T03:08:50.104Z,0
2016-10-16T03:09:30.734Z,0
2016-10-16T03:10:11.380Z,0
2016-10-16T03:10:52.049Z,0
2016-10-16T03:11:32.678Z,0
2016-10-16T03:12:13.321Z,0
2016-10-16T03:12:53.952Z,0
2016-10-16T03:13:34.616Z,0
2016-10-16T03:14:15.262Z,0
2016-10-16T03:14:55.892Z,0
2016-10-16T03:15:36.544Z,0
2016-10-16T03:16:17.182Z,0
2016-10-16T03:16:57.826Z,0
2016-10-16T03:17:38.465Z,0
2016-10-16T03:18:19.122Z,0
2016-10-16T03:18:59.770Z,0
2016-10-16T03:19:40.395Z,0
2016-10-16T03:20:21.021Z,0
2016-10-16T03:21:01.658Z,0
2016-10-16T03:21:42.296Z,0
2016-10-16T03:22:22.929Z,0
2016-10-16T03:23:03.556Z,0
2016-10-16T03:23:44.183Z,0
2016-10-16T03:24:24.836Z,0
2016-10-16T03:25:05.508Z,0
2016-10-16T03:25:46.144Z,0
2016-10-16T03:26:26.787Z,0
2016-10-16T03:27:07.413Z,0
2016-10-16T03:27:48.059Z,0
2016-10-16T03:28:28.706Z,0
2016-10-16T03:29:09.361Z,0
2016-10-16T03:29:50.023Z,0
2016-10-16T03:30:30.671Z,0
2016-10-16T03:31:11.309Z,0
2016-10-16T03:31:51.943Z,0
2016-10-16T03:32:32.574Z,0
2016-10-16T03:33:13.220Z,0
2016-10-16T03:33:53.848Z,0
2016-10-16T03:34:34.483Z,0
2016-10-16T03:35:15.135Z,0
2016-10-16T03:35:55.776Z,0
2016-10-16T03:36:36.404Z,0
2016-10-16T03:37:17.057Z,0
2016-10-16T03:37:57.701Z,0
2016-10-16T03:38:38.363Z,0
2016-10-16T03:39:19.010Z,0
2016-10-16T03:39:59.633Z,0
2016-10-16T03:40:40.283Z,0
2016-10-16T03:41:20.917Z,0
2016-10-16T03:42:01.560Z,0
2016-10-16T03:42:42.219Z,0
2016-10-16T03:43:22.854Z,0
2016-10-16T03:44:03.511Z,0
2016-10-16T03:44:44.171Z,0
2016-10-16T03:45:24.806Z,0
2016-10-16T03:46:05.464Z,0
2016-10-16T03:46:46.106Z,0
2016-10-16T03:47:26.770Z,0
2016-10-16T03:48:07.428Z,0
2016-10-16T03:48:48.068Z,0
2016-10-16T03:49:28.705Z,0
2016-10-16T03:50:09.355Z,0
2016-10-16T03:50:50.000Z,0
2016-10-16T03:51:30.667Z,0
2016-10-16T03:52:11.316Z,0
2016-10-16T03:52:51.960Z,0
2016-10-16T03:53:32.623Z,0
2016-10-16T03:54:13.264Z,0
2016-10-16T03:54:53.900Z,0
2016-10-16T03:55:34.531Z,0
2016-10-16T03:56:15.178Z,0
2016-10-16T03:56:55.841Z,0
2016-10-16T03:57:36.502Z,0
2016-10-16T03:58:17.175Z,0
2016-10-16T03:58:57.802Z,0
2016-10-16T03:59:38.455Z,0
2016-10-16T04:00:19.107Z,0
2016-10-16T04:00:59.756Z,0
2016-10-16T04:01:40.402Z,0
2016-10-16T04:02:21.041Z,0
2016-10-16T04:03:01.660Z,0
2016-10-16T04:03:42.295Z,0
2016-10-16T04:04:22.934Z,0
2016-10-16T04:05:03.568Z,0
2016-10-16T04:05:44.205Z,0
2016-10-16T04:06:24.857Z,0
2016-10-16T04:07:05.487Z,0
2016-10-16T04:07:46.133Z,0
2016-10-16T04:08:27.734Z,0
2016-10-16T04:09:08.386Z,0
2016-10-16T04:09:49.005Z,0
2016-10-16T04:10:29.649Z,0
2016-10-16T04:11:10.312Z,0
2016-10-16T04:11:50.953Z,0
2016-10-16T04:12:31.618Z,0
2016-10-16T04:13:12.261Z,0
2016-10-16T04:13:52.903Z,0
2016-10-16T04:14:33.535Z,0
2016-10-16T04:15:14.184Z,0
2016-10-16T04:15:54.817Z,0
2016-10-16T04:16:35.467Z,0
2016-10-16T04:17:16.108Z,0
2016-10-16T04:17:56.744Z,0
2016-10-16T04:18:37.378Z,0
2016-10-16T04:19:18.063Z,0
2016-10-16T04:19:58.702Z,0
2016-10-16T04:20:39.343Z,0
2016-10-16T04:21:19.999Z,0
2016-10-16T04:22:00.645Z,0
2016-10-16T04:22:41.284Z,0
2016-10-16T04:23:21.927Z,0
2016-10-16T04:24:02.585Z,0
2016-10-16T04:24:43.213Z,0
2016-10-16T04:25:23.847Z,0
2016-10-16T04:26:04.480Z,0
2016-10-16T04:26:45.132Z,0
2016-10-16T04:27:25.766Z,0
2016-10-16T04:28:06.411Z,0
2016-10-16T04:28:47.068Z,0
2016-10-16T04:29:27.697Z,0
2016-10-16T04:30:08.344Z,0
2016-10-16T04:30:48.991Z,0
2016-10-16T04:31:29.655Z,0
2016-10-16T04:32:10.305Z,0
2016-10-16T04:32:50.954Z,0
2016-10-16T04:33:31.626Z,0
2016-10-16T04:34:12.245Z,0
2016-10-16T04:34:52.876Z,0
2016-10-16T04:35:33.519Z,0
2016-10-16T04:36:14.150Z,0
2016-10-16T04:36:54.880Z,0
2016-10-16T04:37:35.511Z,0
2016-10-16T04:38:16.137Z,0
2016-10-16T04:38:56.780Z,0
2016-10-16T04:39:37.418Z,0
2016-10-16T04:40:18.060Z,0
2016-10-16T04:40:58.718Z,0
2016-10-16T04:41:39.372Z,0
2016-10-16T04:42:19.996Z,0
2016-10-16T04:43:00.640Z,0
2016-10-16T04:43:41.301Z,0
2016-10-16T04:44:21.973Z,0
2016-10-16T04:45:02.620Z,0
2016-10-16T04:45:43.269Z,0
2016-10-16T04:46:23.929Z,0
2016-10-16T04:47:04.560Z,0
2016-10-16T04:47:45.225Z,0
2016-10-16T04:48:25.852Z,0
2016-10-16T04:49:06.494Z,0
2016-10-16T04:49:47.147Z,0
2016-10-16T04:50:27.781Z,0
2016-10-16T04:51:08.429Z,0
2016-10-16T04:51:49.075Z,0
2016-10-16T04:52:29.718Z,0
2016-10-16T04:53:10.354Z,0
2016-10-16T04:53:50.999Z,0
2016-10-16T04:54:31.644Z,0
2016-10-16T04:55:12.291Z,0
2016-10-16T04:55:52.926Z,0
2016-10-16T04:56:33.580Z,0
2016-10-16T04:57:14.230Z,0
2016-10-16T04:57:54.879Z,0
2016-10-16T04:58:35.523Z,0
2016-10-16T04:59:16.173Z,0
2016-10-16T04:59:56.815Z,0
2016-10-16T05:00:37.455Z,0
2016-10-16T05:01:18.074Z,0
2016-10-16T05:01:58.748Z,0
2016-10-16T05:02:39.390Z,0
2016-10-16T05:03:20.044Z,0
2016-10-16T05:04:00.683Z,0
2016-10-16T05:04:42.280Z,0
2016-10-16T05:05:22.916Z,0
2016-10-16T05:06:03.553Z,0
2016-10-16T05:06:44.225Z,0
2016-10-16T05:07:24.848Z,0
2016-10-16T05:08:05.493Z,0
2016-10-16T05:08:46.131Z,0
2016-10-16T05:09:26.781Z,0
2016-10-16T05:10:08.327Z,0
2016-10-16T05:10:48.967Z,0
2016-10-16T05:11:29.628Z,0
2016-10-16T05:12:10.281Z,0
2016-10-16T05:12:50.909Z,0
2016-10-16T05:13:31.551Z,0
2016-10-16T05:14:12.177Z,0
2016-10-16T05:14:52.830Z,0
2016-10-16T05:15:33.470Z,0
2016-10-16T05:16:14.123Z,0
2016-10-16T05:16:54.772Z,0
2016-10-16T05:17:35.415Z,0
2016-10-16T05:18:16.059Z,0
2016-10-16T05:18:56.697Z,0
2016-10-16T05:19:37.330Z,0
2016-10-16T05:20:17.952Z,0
2016-10-16T05:20:58.585Z,0
2016-10-16T05:21:39.219Z,0
2016-10-16T05:22:19.860Z,0
2016-10-16T05:23:00.489Z,0
2016-10-16T05:23:41.144Z,0
2016-10-16T05:24:21.805Z,0
2016-10-16T05:25:02.431Z,0
2016-10-16T05:25:43.068Z,0
2016-10-16T05:26:23.698Z,0
2016-10-16T05:27:04.338Z,0
2016-10-16T05:27:44.972Z,0
2016-10-16T05:28:25.613Z,0
2016-10-16T05:29:06.239Z,0
2016-10-16T05:29:46.890Z,0
2016-10-16T05:30:27.516Z,0
2016-10-16T05:31:08.155Z,0
2016-10-16T05:31:48.796Z,0
2016-10-16T05:32:29.433Z,0
2016-10-16T05:33:10.085Z,0
2016-10-16T05:33:50.722Z,0
2016-10-16T05:34:31.371Z,0
2016-10-16T05:35:12.010Z,0
2016-10-16T05:35:52.661Z,0
2016-10-16T05:36:33.279Z,0
2016-10-16T05:37:13.917Z,0
2016-10-16T05:37:54.556Z,0
2016-10-16T05:38:35.204Z,0
2016-10-16T05:39:15.836Z,0
2016-10-16T05:39:56.470Z,0
2016-10-16T05:40:37.104Z,0
2016-10-16T05:41:17.760Z,0
2016-10-16T05:41:58.418Z,0
2016-10-16T05:42:39.058Z,0
2016-10-16T05:43:19.679Z,0
2016-10-16T05:44:00.321Z,0
2016-10-16T05:44:40.965Z,0
2016-10-16T05:45:21.593Z,0
2016-10-16T05:46:02.228Z,0
2016-10-16T05:46:42.878Z,0
2016-10-16T05:47:23.541Z,0
2016-10-16T05:48:04.168Z,0
2016-10-16T05:48:44.792Z,0
2016-10-16T05:49:25.415Z,0
2016-10-16T05:50:06.052Z,0
2016-10-16T05:50:46.704Z,0
2016-10-16T05:51:27.336Z,0
2016-10-16T05:52:07.979Z,0
2016-10-16T05:52:48.628Z,0
2016-10-16T05:53:29.268Z,0
2016-10-16T05:54:09.900Z,0
2016-10-16T05:54:50.573Z,0
2016-10-16T05:55:31.195Z,0
2016-10-16T05:56:11.849Z,0
2016-10-16T05:56:52.486Z,0
2016-10-16T05:57:33.129Z,0
2016-10-16T05:58:13.762Z,0
2016-10-16T05:58:54.428Z,0
2016-10-16T05:59:35.063Z,4
2016-10-16T06:00:15.720Z,4
2016-10-16T06:00:56.352Z,0
2016-10-16T06:01:37.012Z,0
2016-10-16T06:02:17.647Z,0
2016-10-16T06:02:58.269Z,0
2016-10-16T06:03:38.952Z,0
2016-10-16T06:04:19.613Z,4
2016-10-16T06:05:00.248Z,4
2016-10-16T06:05:40.873Z,0
2016-10-16T06:06:21.516Z,0
2016-10-16T06:07:02.152Z,0
2016-10-16T06:07:42.778Z,4
2016-10-16T06:08:23.431Z,4
2016-10-16T06:09:04.069Z,4
2016-10-16T06:09:44.724Z,4
2016-10-16T06:10:25.371Z,4
2016-10-16T06:11:06.013Z,4
2016-10-16T06:11:46.646Z,4
2016-10-16T06:12:27.311Z,4
2016-10-16T06:13:07.960Z,4
2016-10-16T06:13:48.595Z,4
2016-10-16T06:14:29.258Z,4
2016-10-16T06:15:09.895Z,4
2016-10-16T06:15:50.545Z,4
2016-10-16T06:16:31.184Z,4
2016-10-16T06:17:11.816Z,4
2016-10-16T06:17:52.449Z,4
2016-10-16T06:18:33.089Z,8
2016-10-16T06:19:13.720Z,4
2016-10-16T06:19:54.385Z,8
2016-10-16T06:20:35.039Z,8
2016-10-16T06:21:15.676Z,8
2016-10-16T06:21:56.308Z,8
2016-10-16T06:22:36.943Z,12
2016-10-16T06:23:17.590Z,8
2016-10-16T06:23:58.253Z,12
2016-10-16T06:24:38.863Z,8
2016-10-16T06:25:19.497Z,12
2016-10-16T06:26:00.123Z,12
2016-10-16T06:26:40.756Z,16
2016-10-16T06:27:21.380Z,12
2016-10-16T06:28:02.032Z,12
2016-10-16T06:28:42.666Z,12
2016-10-16T06:29:23.290Z,16
2016-10-16T06:30:03.941Z,16
2016-10-16T06:30:44.582Z,16
2016-10-16T06:31:25.228Z,20
2016-10-16T06:32:05.863Z,20
2016-10-16T06:32:46.515Z,20
2016-10-16T06:33:27.142Z,20
2016-10-16T06:34:07.820Z,24
2016-10-16T06:34:48.449Z,24
2016-10-16T06:35:29.093Z,24
2016-10-16T06:36:09.724Z,28
2016-10-16T06:36:50.350Z,32
2016-10-16T06:37:31.013Z,32
2016-10-16T06:38:11.638Z,36
2016-10-16T06:38:52.267Z,36
2016-10-16T06:39:32.916Z,40
2016-10-16T06:40:13.542Z,36
2016-10-16T06:40:54.181Z,40
2016-10-16T06:41:34.836Z,40
2016-10-16T06:42:15.464Z,44
2016-10-16T06:42:56.099Z,44
2016-10-16T06:43:36.736Z,44
2016-10-16T06:44:17.388Z,44
2016-10-16T06:44:58.037Z,48
2016-10-16T06:45:38.670Z,52
2016-10-16T06:46:19.313Z,48
2016-10-16T06:46:59.967Z,52
2016-10-16T06:47:40.627Z,52
2016-10-16T06:48:21.274Z,56
2016-10-16T06:49:01.894Z,52
2016-10-16T06:49:42.533Z,56
2016-10-16T06:50:23.169Z,56
2016-10-16T06:51:03.821Z,56
2016-10-16T06:51:44.455Z,56
2016-10-16T06:52:25.104Z,56
2016-10-16T06:53:05.736Z,48
2016-10-16T06:53:46.379Z,44
2016-10-16T06:54:27.005Z,56
2016-10-16T06:55:07.650Z,56
2016-10-16T06:55:48.285Z,56
2016-10-16T06:56:28.922Z,56
2016-10-16T06:57:09.555Z,60
2016-10-16T06:57:50.205Z,56
2016-10-16T06:58:30.846Z,60
2016-10-16T06:59:11.487Z,60
2016-10-16T06:59:52.147Z,64
2016-10-16T07:00:32.805Z,68
2016-10-16T07:01:13.432Z,68
2016-10-16T07:01:54.065Z,68
2016-10-16T07:02:34.708Z,68
2016-10-16T07:03:15.352Z,72
2016-10-16T07:03:56.011Z,72
2016-10-16T07:04:36.639Z,72
2016-10-16T07:05:17.292Z,72
2016-10-16T07:05:57.955Z,76
2016-10-16T07:06:38.591Z,76
2016-10-16T07:07:19.227Z,76
2016-10-16T07:07:59.860Z,80
2016-10-16T07:08:40.501Z,80
2016-10-16T07:09:21.153Z,80
2016-10-16T07:10:01.810Z,76
2016-10-16T07:10:42.447Z,76
2016-10-16T07:11:23.096Z,72
2016-10-16T07:12:03.741Z,76
2016-10-16T07:12:44.430Z,80
2016-10-16T07:13:25.086Z,76
2016-10-16T07:14:05.731Z,76
2016-10-16T07:14:46.373Z,80
2016-10-16T07:15:26.996Z,80
2016-10-16T07:16:07.636Z,80
2016-10-16T07:16:48.281Z,80
2016-10-16T07:17:28.911Z,80
2016-10-16T07:18:09.534Z,80
2016-10-16T07:18:50.168Z,80
2016-10-16T07:19:30.820Z,80
2016-10-16T07:20:11.474Z,84
2016-10-16T07:20:52.128Z,80
2016-10-16T07:21:32.768Z,84
2016-10-16T07:22:13.417Z,84
2016-10-16T07:22:54.050Z,84
2016-10-16T07:23:34.709Z,84
2016-10-16T07:24:15.364Z,84
2016-10-16T07:24:56.025Z,84
2016-10-16T07:25:36.672Z,84
2016-10-16T07:26:17.323Z,84
2016-10-16T07:26:57.940Z,84
2016-10-16T07:27:38.572Z,88
2016-10-16T07:28:19.213Z,84
2016-10-16T07:28:59.850Z,84
2016-10-16T07:29:40.488Z,88
2016-10-16T07:30:21.139Z,88
2016-10-16T07:31:01.791Z,88
2016-10-16T07:31:43.391Z,88
2016-10-16T07:32:23.076Z,88
2016-10-16T07:33:03.710Z,92
2016-10-16T07:33:44.364Z,92
2016-10-16T07:34:25.015Z,92
2016-10-16T07:35:05.645Z,92
2016-10-16T07:35:46.285Z,92
2016-10-16T07:36:26.918Z,92
2016-10-16T07:37:07.567Z,92
2016-10-16T07:37:48.203Z,84
2016-10-16T07:38:28.849Z,92
2016-10-16T07:39:09.471Z,92
2016-10-16T07:39:50.124Z,84
2016-10-16T07:40:30.737Z,92
2016-10-16T07:41:11.375Z,88
2016-10-16T07:41:52.019Z,92
2016-10-16T07:42:32.650Z,84
2016-10-16T07:43:13.300Z,84
2016-10-16T07:43:53.934Z,80
2016-10-16T07:44:34.573Z,76
2016-10-16T07:45:15.241Z,80
2016-10-16T07:45:55.887Z,80
2016-10-16T07:46:36.521Z,84
2016-10-16T07:47:17.168Z,84
2016-10-16T07:47:57.806Z,84
2016-10-16T07:48:38.446Z,88
2016-10-16T07:49:19.096Z,84
2016-10-16T07:49:59.750Z,84
2016-10-16T07:50:40.393Z,84
2016-10-16T07:51:21.020Z,84
2016-10-16T07:52:01.666Z,92
2016-10-16T07:52:42.316Z,92
2016-10-16T07:53:22.953Z,92
2016-10-16T07:54:03.590Z,92
2016-10-16T07:54:44.229Z,92
2016-10-16T07:55:24.870Z,96
2016-10-16T07:56:05.506Z,96
2016-10-16T07:56:46.151Z,100
2016-10-16T07:57:26.801Z,100
2016-10-16T07:58:07.427Z,100
2016-10-16T07:58:48.066Z,100
2016-10-16T07:59:28.742Z,100
2016-10-16T08:00:09.401Z,100
2016-10-16T08:00:50.050Z,100
2016-10-16T08:01:30.704Z,100
2016-10-16T08:02:11.332Z,104
2016-10-16T08:02:51.968Z,104
2016-10-16T08:03:32.619Z,104
2016-10-16T08:04:13.266Z,104
2016-10-16T08:04:53.911Z,104
2016-10-16T08:05:34.561Z,104
2016-10-16T08:06:15.193Z,104
2016-10-16T08:06:55.838Z,104
2016-10-16T08:07:36.487Z,100
2016-10-16T08:08:17.125Z,104
2016-10-16T08:08:57.767Z,104
2016-10-16T08:09:38.415Z,108
2016-10-16T08:10:19.047Z,108
2016-10-16T08:10:59.695Z,104
2016-10-16T08:11:40.346Z,104
2016-10-16T08:12:21.027Z,104
2016-10-16T08:13:01.659Z,104
2016-10-16T08:13:42.297Z,104
2016-10-16T08:14:22.948Z,108
2016-10-16T08:15:03.595Z,104
2016-10-16T08:15:44.226Z,104
2016-10-16T08:16:24.862Z,104
2016-10-16T08:17:05.508Z,104
2016-10-16T08:17:46.143Z,104
2016-10-16T08:18:26.792Z,104
2016-10-16T08:19:07.425Z,104
2016-10-16T08:19:48.059Z,104
2016-10-16T08:20:28.691Z,100
2016-10-16T08:21:09.343Z,100
2016-10-16T08:21:49.993Z,100
2016-10-16T08:22:30.631Z,104
2016-10-16T08:23:11.277Z,100
2016-10-16T08:23:51.928Z,96
2016-10-16T08:24:32.578Z,96
2016-10-16T08:25:13.203Z,100
2016-10-16T08:25:53.867Z,100
2016-10-16T08:26:34.497Z,100
2016-10-16T08:27:15.150Z,100
2016-10-16T08:27:55.806Z,104
2016-10-16T08:28:36.467Z,108
2016-10-16T08:29:17.106Z,112
2016-10-16T08:29:57.756Z,108
2016-10-16T08:30:38.392Z,108
2016-10-16T08:31:19.030Z,108
2016-10-16T08:31:59.658Z,112
2016-10-16T08:32:40.312Z,116
2016-10-16T08:33:20.967Z,116
2016-10-16T08:34:01.629Z,108
2016-10-16T08:34:42.268Z,116
2016-10-16T08:35:22.943Z,116
2016-10-16T08:36:03.583Z,116
2016-10-16T08:36:44.224Z,112
2016-10-16T08:37:24.871Z,112
2016-10-16T08:38:05.504Z,108
2016-10-16T08:38:46.150Z,116
2016-10-16T08:39:26.771Z,120
2016-10-16T08:40:07.418Z,120
2016-10-16T08:40:48.045Z,124
2016-10-16T08:41:28.690Z,124
2016-10-16T08:42:09.345Z,124
2016-10-16T08:42:49.999Z,100
2016-10-16T08:43:30.637Z,108
2016-10-16T08:44:11.271Z,116
2016-10-16T08:44:51.945Z,80
2016-10-16T08:45:32.591Z,92
2016-10-16T08:46:13.247Z,116
2016-10-16T08:46:53.876Z,116
2016-10-16T08:47:34.514Z,112
2016-10-16T08:48:15.148Z,112
2016-10-16T08:48:55.777Z,112
2016-10-16T08:49:36.463Z,116
2016-10-16T08:50:17.094Z,116
2016-10-16T08:50:57.747Z,120
2016-10-16T08:51:38.398Z,116
2016-10-16T08:52:19.040Z,120
2016-10-16T08:52:59.679Z,120
2016-10-16T08:53:40.359Z,120
2016-10-16T08:54:21.021Z,120
2016-10-16T08:55:01.679Z,112
2016-10-16T08:55:42.296Z,112
2016-10-16T08:56:22.946Z,116
2016-10-16T08:57:03.577Z,116
2016-10-16T08:57:44.231Z,116
2016-10-16T08:58:24.846Z,116
2016-10-16T08:59:05.491Z,112
2016-10-16T08:59:46.156Z,116
2016-10-16T09:00:26.905Z,116
2016-10-16T09:01:07.587Z,104
2016-10-16T09:01:48.293Z,108
2016-10-16T09:02:29.009Z,108
2016-10-16T09:03:09.702Z,104
2016-10-16T09:03:50.414Z,116
2016-10-16T09:04:31.103Z,116
2016-10-16T09:05:11.763Z,112
2016-10-16T09:05:52.453Z,100
2016-10-16T09:06:33.168Z,120
2016-10-16T09:07:13.857Z,88
2016-10-16T09:07:54.560Z,124
2016-10-16T09:08:35.279Z,124
2016-10-16T09:09:15.918Z,124
2016-10-16T09:09:56.624Z,120
2016-10-16T09:10:37.292Z,112
2016-10-16T09:11:18.000Z,96
2016-10-16T09:11:58.705Z,116
2016-10-16T09:12:39.365Z,112
2016-10-16T09:13:20.066Z,112
2016-10-16T09:14:00.756Z,112
2016-10-16T09:14:41.464Z,112
2016-10-16T09:15:22.163Z,108
2016-10-16T09:16:02.873Z,116
2016-10-16T09:16:43.540Z,116
2016-10-16T09:17:24.188Z,120
2016-10-16T09:18:04.917Z,116
2016-10-16T09:18:45.567Z,120
2016-10-16T09:19:26.232Z,116
2016-10-16T09:20:06.948Z,120
2016-10-16T09:20:47.591Z,120
2016-10-16T09:21:28.274Z,120
2016-10-16T09:22:09.590Z,124
2016-10-16T09:22:50.371Z,124
2016-10-16T09:23:31.105Z,124
2016-10-16T09:24:11.832Z,120
2016-10-16T09:24:52.563Z,124
2016-10-16T09:25:33.268Z,128
2016-10-16T09:26:13.995Z,124
2016-10-16T09:26:54.699Z,124
2016-10-16T09:27:35.394Z,124
2016-10-16T09:28:16.050Z,124
2016-10-16T09:28:56.768Z,124
2016-10-16T09:29:37.488Z,124
2016-10-16T09:30:18.200Z,124
2016-10-16T09:30:59.476Z,120
2016-10-16T09:31:39.584Z,108
2016-10-16T09:32:20.286Z,108
2016-10-16T09:33:00.977Z,108
2016-10-16T09:33:41.653Z,108
2016-10-16T09:34:22.364Z,108
2016-10-16T09:35:03.971Z,112
2016-10-16T09:35:43.748Z,112
2016-10-16T09:36:24.442Z,120
2016-10-16T09:37:05.134Z,120
2016-10-16T09:37:45.818Z,116
2016-10-16T09:38:26.542Z,120
2016-10-16T09:39:07.250Z,124
2016-10-16T09:39:47.960Z,116
2016-10-16T09:40:28.649Z,120
2016-10-16T09:41:09.361Z,120
2016-10-16T09:41:50.044Z,124
2016-10-16T09:42:30.670Z,124
2016-10-16T09:43:11.384Z,128
2016-10-16T09:43:52.077Z,128
2016-10-16T09:44:32.757Z,128
2016-10-16T09:45:13.443Z,132
2016-10-16T09:45:54.096Z,128
2016-10-16T09:46:34.748Z,124
2016-10-16T09:47:15.463Z,128
2016-10-16T09:47:56.194Z,124
2016-10-16T09:48:36.874Z,124
2016-10-16T09:49:17.573Z,124
2016-10-16T09:49:58.315Z,124